Time;durP1;ratioP1;P1;durP2;ratioP2;P2;SDS_P1;SDS_P2;PMS_P1;PMS_P2;Temp;Humidity;BMP_temperature;BMP_pressure;BME280_temperature;BME280_humidity;BME280_pressure;Samples;Min_cycle;Max_cycle;Signal;HPM_P1;HPM_P2
2023/11/27 05:06:03;;;;;;;0.40;0.40;;;3.90;99.90;;;;;;5674077;23;20259;-70
2023/11/27 05:08:29;;;;;;;0.30;0.30;;;3.90;99.90;;;;;;4976796;28;20206;-70
2023/11/27 05:10:54;;;;;;;0.30;0.30;;;3.90;99.90;;;;;;4959706;28;20201;-70
2023/11/27 05:13:20;;;;;;;0.30;0.30;;;3.90;99.90;;;;;;4976748;28;20176;-70
2023/11/27 05:15:46;;;;;;;0.30;0.30;;;3.90;99.90;;;;;;4976601;28;20312;-70
2023/11/27 05:18:12;;;;;;;0.30;0.30;;;3.90;99.90;;;;;;4977086;28;20618;-70
2023/11/27 05:20:38;;;;;;;0.35;0.35;;;3.90;99.90;;;;;;4976586;28;20626;-70
2023/11/27 05:23:04;;;;;;;0.40;0.40;;;3.90;99.90;;;;;;4976991;28;20201;-70
2023/11/27 05:25:29;;;;;;;0.30;0.30;;;3.90;99.90;;;;;;4976391;28;20215;-70
2023/11/27 05:27:55;;;;;;;0.30;0.30;;;3.90;99.90;;;;;;4976567;28;20246;-70
2023/11/27 05:30:21;;;;;;;0.37;0.37;;;3.90;99.90;;;;;;4975884;28;20172;-70
2023/11/27 05:32:48;;;;;;;0.30;0.30;;;3.90;99.90;;;;;;4976772;28;20164;-70
2023/11/27 05:35:14;;;;;;;0.30;0.30;;;3.90;99.90;;;;;;4975199;28;20184;-70
2023/11/27 05:37:39;;;;;;;0.30;0.30;;;3.90;99.90;;;;;;4976359;28;20175;-70
2023/11/27 05:40:07;;;;;;;0.40;0.40;;;3.90;99.90;;;;;;4976728;28;20205;-69
2023/11/27 05:42:39;;;;;;;0.30;0.30;;;3.80;99.90;;;;;;4959352;28;20204;-70
2023/11/27 05:45:11;;;;;;;0.50;0.50;;;3.80;99.90;;;;;;4958796;28;20193;-70
2023/11/27 05:47:39;;;;;;;0.30;0.30;;;3.80;99.90;;;;;;4976618;28;20513;-69
2023/11/27 05:50:06;;;;;;;0.40;0.40;;;3.80;99.90;;;;;;4976102;28;20203;-69
2023/11/27 05:52:32;;;;;;;0.30;0.30;;;3.80;99.90;;;;;;4976079;28;20184;-69
2023/11/27 05:54:59;;;;;;;0.45;0.45;;;3.90;99.90;;;;;;4975894;28;20256;-69
2023/11/27 05:57:24;;;;;;;0.30;0.30;;;3.90;99.90;;;;;;4976627;28;20173;-70
2023/11/27 05:59:50;;;;;;;0.30;0.30;;;3.90;99.90;;;;;;4974921;28;20654;-69
2023/11/27 06:02:15;;;;;;;0.30;0.30;;;3.90;99.90;;;;;;4976110;28;20170;-69
2023/11/27 06:04:43;;;;;;;0.30;0.30;;;3.90;99.90;;;;;;4975386;28;20207;-70
2023/11/27 06:07:08;;;;;;;0.40;0.40;;;3.90;99.90;;;;;;4973787;28;20176;-68
2023/11/27 06:09:34;;;;;;;0.40;0.40;;;3.90;99.90;;;;;;4974060;28;20181;-69
2023/11/27 06:12:00;;;;;;;0.40;0.40;;;3.90;99.90;;;;;;4973811;28;20176;-69
2023/11/27 06:14:25;;;;;;;0.50;0.50;;;3.90;99.90;;;;;;4983359;28;20230;-70
2023/11/27 06:16:51;;;;;;;0.30;0.30;;;3.90;99.90;;;;;;4986842;28;20228;-70
2023/11/27 06:19:19;;;;;;;0.40;0.40;;;4.00;99.90;;;;;;4973227;28;20198;-70
2023/11/27 06:21:45;;;;;;;0.40;0.40;;;4.00;99.90;;;;;;4974622;28;20592;-69
2023/11/27 06:24:10;;;;;;;0.30;0.30;;;4.00;99.90;;;;;;4975261;28;20168;-70
2023/11/27 06:26:36;;;;;;;0.30;0.30;;;4.00;99.90;;;;;;4975503;28;20727;-71
2023/11/27 06:29:02;;;;;;;0.40;0.40;;;4.00;99.90;;;;;;4975353;28;20182;-68
2023/11/27 06:31:28;;;;;;;0.50;0.50;;;3.90;99.90;;;;;;4975406;28;20542;-69
2023/11/27 06:33:53;;;;;;;0.40;0.40;;;3.90;99.90;;;;;;4975631;28;20184;-68
2023/11/27 06:36:19;;;;;;;0.30;0.30;;;4.00;99.90;;;;;;4975166;28;20268;-68
2023/11/27 06:38:44;;;;;;;0.30;0.30;;;4.00;99.90;;;;;;4975354;28;20177;-73
2023/11/27 06:41:11;;;;;;;0.40;0.40;;;3.90;99.90;;;;;;4975402;28;20213;-70
2023/11/27 06:43:36;;;;;;;0.30;0.30;;;3.90;99.90;;;;;;4975065;28;20181;-71
2023/11/27 06:46:02;;;;;;;0.40;0.40;;;3.90;99.90;;;;;;4974807;28;20260;-68
2023/11/27 06:48:29;;;;;;;0.40;0.40;;;3.90;99.90;;;;;;4975426;28;20172;-70
2023/11/27 06:50:55;;;;;;;0.40;0.40;;;3.80;99.90;;;;;;4975517;28;20216;-70
2023/11/27 06:53:24;;;;;;;0.40;0.40;;;3.80;99.90;;;;;;4975423;28;20172;-70
2023/11/27 06:55:49;;;;;;;0.30;0.30;;;3.80;99.90;;;;;;4974145;28;20230;-70
2023/11/27 06:58:15;;;;;;;0.40;0.40;;;3.80;99.90;;;;;;4975618;28;20200;-71
2023/11/27 07:00:41;;;;;;;0.60;0.60;;;3.80;99.90;;;;;;4979227;28;20632;-70
2023/11/27 07:03:07;;;;;;;0.40;0.40;;;3.80;99.90;;;;;;4994483;28;20531;-70
2023/11/27 07:05:33;;;;;;;0.30;0.30;;;3.80;99.90;;;;;;4976489;28;20235;-69
2023/11/27 07:07:59;;;;;;;0.30;0.30;;;3.70;99.90;;;;;;4991615;28;20232;-70
2023/11/27 07:10:25;;;;;;;0.40;0.40;;;3.80;99.90;;;;;;4973534;28;20437;-71
2023/11/27 07:12:51;;;;;;;0.30;0.30;;;3.80;99.90;;;;;;4980370;28;20199;-70
2023/11/27 07:15:17;;;;;;;0.40;0.40;;;3.80;99.90;;;;;;4989892;28;20196;-70
2023/11/27 07:17:44;;;;;;;0.30;0.30;;;3.90;99.90;;;;;;4957276;28;20219;-71
2023/11/27 07:20:17;;;;;;;0.30;0.30;;;3.80;99.90;;;;;;4974738;28;20295;-70
2023/11/27 07:22:46;;;;;;;0.30;0.30;;;3.90;99.90;;;;;;4975276;28;20168;-70
2023/11/27 07:25:14;;;;;;;0.35;0.35;;;3.90;99.90;;;;;;4957738;28;20542;-70
2023/11/27 07:27:40;;;;;;;0.38;0.38;;;3.90;99.90;;;;;;4978119;28;20630;-70
2023/11/27 07:30:07;;;;;;;0.40;0.40;;;4.00;99.90;;;;;;4961884;28;20193;-70
2023/11/27 07:32:32;;;;;;;0.30;0.30;;;4.00;99.90;;;;;;4991937;28;20640;-70
2023/11/27 07:34:58;;;;;;;0.30;0.30;;;4.00;99.90;;;;;;4974233;28;20225;-71
2023/11/27 07:37:24;;;;;;;0.30;0.30;;;4.00;99.90;;;;;;4956701;28;20178;-69
2023/11/27 07:39:50;;;;;;;0.40;0.40;;;4.00;99.90;;;;;;4974560;28;20708;-70
2023/11/27 07:42:18;;;;;;;0.40;0.40;;;4.10;99.90;;;;;;4977053;28;20247;-72
2023/11/27 07:44:44;;;;;;;0.35;0.35;;;4.10;99.90;;;;;;4974055;28;20178;-69
2023/11/27 07:47:10;;;;;;;0.30;0.30;;;4.20;99.90;;;;;;4984682;28;20255;-69
2023/11/27 07:49:35;;;;;;;0.30;0.30;;;4.30;99.90;;;;;;4975886;28;20184;-69
2023/11/27 07:52:01;;;;;;;0.33;0.33;;;4.20;99.90;;;;;;4957015;28;20212;-71
2023/11/27 07:54:27;;;;;;;0.50;0.50;;;4.30;99.90;;;;;;4975568;28;20430;-71
2023/11/27 07:56:53;;;;;;;0.50;0.50;;;4.30;99.90;;;;;;4984357;28;20220;-70
2023/11/27 07:59:19;;;;;;;0.37;0.37;;;4.30;99.90;;;;;;4973590;28;20434;-70
2023/11/27 08:01:45;;;;;;;0.30;0.30;;;4.40;99.90;;;;;;4962795;28;20205;-70
2023/11/27 08:04:11;;;;;;;0.30;0.30;;;4.40;99.90;;;;;;4974015;28;20504;-69
2023/11/27 08:06:37;;;;;;;0.30;0.30;;;4.40;99.90;;;;;;4987593;28;20222;-70
2023/11/27 08:09:04;;;;;;;0.30;0.30;;;4.40;99.90;;;;;;4994205;28;20759;-69
2023/11/27 08:11:34;;;;;;;0.30;0.30;;;4.50;99.90;;;;;;4992999;28;20174;-69
2023/11/27 08:14:00;;;;;;;0.40;0.40;;;4.50;99.90;;;;;;4983974;28;20237;-73
2023/11/27 08:16:26;;;;;;;0.40;0.40;;;4.50;99.90;;;;;;4991812;28;20232;-71
2023/11/27 08:18:52;;;;;;;0.40;0.40;;;4.60;99.90;;;;;;4994284;28;20627;-71
2023/11/27 08:21:18;;;;;;;0.40;0.40;;;4.60;99.90;;;;;;4975954;28;20455;-69
2023/11/27 08:23:44;;;;;;;0.40;0.40;;;4.70;99.90;;;;;;4982666;28;20584;-71
2023/11/27 08:26:11;;;;;;;0.30;0.30;;;4.70;99.90;;;;;;4996776;28;20269;-70
2023/11/27 08:28:36;;;;;;;0.40;0.40;;;4.70;99.90;;;;;;4979587;28;20454;-70
2023/11/27 08:31:04;;;;;;;0.30;0.30;;;4.70;99.90;;;;;;4986075;28;20200;-70
2023/11/27 08:33:29;;;;;;;0.30;0.30;;;4.70;99.90;;;;;;4997089;28;20178;-71
2023/11/27 08:35:57;;;;;;;0.40;0.40;;;4.70;99.90;;;;;;4996971;28;20582;-70
2023/11/27 08:38:24;;;;;;;0.30;0.30;;;4.80;99.90;;;;;;4997272;28;20246;-70
2023/11/27 08:40:51;;;;;;;0.30;0.30;;;4.90;99.90;;;;;;4979678;28;20201;-70
2023/11/27 08:43:16;;;;;;;0.30;0.30;;;4.90;99.90;;;;;;4990333;28;20176;-70
2023/11/27 08:45:42;;;;;;;0.63;0.63;;;5.00;99.90;;;;;;4981708;28;20245;-71
2023/11/27 08:48:08;;;;;;;0.40;0.40;;;5.00;99.90;;;;;;4979292;28;20214;-71
2023/11/27 08:50:35;;;;;;;0.30;0.30;;;5.10;99.90;;;;;;4993284;28;20191;-70
2023/11/27 08:53:04;;;;;;;0.30;0.30;;;5.10;99.90;;;;;;4977320;28;20164;-69
2023/11/27 08:55:30;;;;;;;0.30;0.30;;;5.10;99.90;;;;;;4959339;28;20207;-70
2023/11/27 08:58:03;;;;;;;0.30;0.30;;;5.20;99.90;;;;;;4958685;28;20191;-70
2023/11/27 09:00:28;;;;;;;0.40;0.40;;;5.20;99.90;;;;;;4978104;28;20662;-70
2023/11/27 09:02:58;;;;;;;0.37;0.37;;;5.30;99.90;;;;;;4977047;28;20189;-69
2023/11/27 09:05:26;;;;;;;0.40;0.40;;;5.30;99.90;;;;;;4976629;28;20438;-71
2023/11/27 09:07:53;;;;;;;0.30;0.30;;;5.40;99.90;;;;;;4976737;28;20191;-72
2023/11/27 09:10:20;;;;;;;0.30;0.30;;;5.50;99.90;;;;;;4970260;28;20254;-72
2023/11/27 09:12:48;;;;;;;0.30;0.30;;;5.60;99.90;;;;;;4977733;28;20180;-72
2023/11/27 09:15:13;;;;;;;0.30;0.30;;;5.60;99.90;;;;;;4978329;28;20290;-72
2023/11/27 09:17:39;;;;;;;0.30;0.30;;;5.70;99.90;;;;;;4959544;28;20215;-72
2023/11/27 09:20:06;;;;;;;0.50;0.50;;;5.70;99.90;;;;;;4976875;28;20531;-70
2023/11/27 09:22:32;;;;;;;0.30;0.30;;;5.70;99.90;;;;;;4976613;28;20662;-70
2023/11/27 09:24:58;;;;;;;0.30;0.30;;;5.80;99.90;;;;;;4976358;28;20599;-70
2023/11/27 09:27:23;;;;;;;0.40;0.40;;;5.90;99.90;;;;;;4978234;28;20203;-71
2023/11/27 09:29:49;;;;;;;0.30;0.30;;;6.00;99.90;;;;;;4976610;28;20180;-70
2023/11/27 09:32:15;;;;;;;0.40;0.40;;;6.10;99.90;;;;;;4977687;28;20219;-71
2023/11/27 09:34:40;;;;;;;0.30;0.30;;;6.20;99.90;;;;;;4979984;28;20163;-70
2023/11/27 09:37:06;;;;;;;0.40;0.40;;;6.30;99.90;;;;;;4995718;28;20543;-71
2023/11/27 09:39:32;;;;;;;0.30;0.30;;;6.40;99.90;;;;;;4976593;28;20180;-71
2023/11/27 09:41:58;;;;;;;0.40;0.40;;;6.40;99.90;;;;;;4976152;28;20203;-71
2023/11/27 09:44:25;;;;;;;0.40;0.40;;;6.50;99.90;;;;;;4987390;28;20190;-71
2023/11/27 09:46:53;;;;;;;0.30;0.30;;;6.60;99.90;;;;;;4981456;28;20193;-71
2023/11/27 09:49:24;;;;;;;0.30;0.30;;;6.60;99.90;;;;;;4976299;28;20180;-70
2023/11/27 09:51:58;;;;;;;0.30;0.30;;;6.70;99.90;;;;;;4958913;28;20543;-70
2023/11/27 09:54:27;;;;;;;0.40;0.40;;;6.80;99.90;;;;;;4958689;28;20903;-71
2023/11/27 09:56:54;;;;;;;0.30;0.30;;;6.80;99.90;;;;;;4958675;28;20687;-70
2023/11/27 09:59:20;;;;;;;0.30;0.30;;;6.80;99.90;;;;;;4976103;28;20181;-70
2023/11/27 10:01:49;;;;;;;0.30;0.30;;;6.90;99.90;;;;;;4989416;28;20215;-70
2023/11/27 10:04:15;;;;;;;0.30;0.30;;;7.00;99.90;;;;;;4995291;28;20168;-70
2023/11/27 10:06:44;;;;;;;0.30;0.30;;;7.10;99.90;;;;;;4985922;28;20286;-70
2023/11/27 10:09:14;;;;;;;0.30;0.30;;;7.20;99.90;;;;;;4975976;28;20196;-71
2023/11/27 10:11:40;;;;;;;0.30;0.30;;;7.20;99.90;;;;;;4958633;28;20172;-70
2023/11/27 10:14:10;;;;;;;0.30;0.30;;;7.20;99.90;;;;;;4975397;28;20180;-70
2023/11/27 10:16:37;;;;;;;0.30;0.30;;;7.30;99.90;;;;;;4987387;28;20207;-70
2023/11/27 10:19:07;;;;;;;0.40;0.40;;;7.40;99.90;;;;;;4980060;28;20526;-70
2023/11/27 10:21:36;;;;;;;0.30;0.30;;;7.50;99.90;;;;;;4975384;28;20260;-71
2023/11/27 10:24:10;;;;;;;0.38;0.38;;;7.70;99.90;;;;;;4975919;28;20180;-70
2023/11/27 10:26:40;;;;;;;0.30;0.30;;;7.70;99.90;;;;;;4975730;28;20192;-70
2023/11/27 10:29:07;;;;;;;0.40;0.40;;;7.80;99.90;;;;;;4982413;28;20239;-69
2023/11/27 10:31:33;;;;;;;0.40;0.40;;;7.80;99.90;;;;;;4985138;28;20644;-68
2023/11/27 10:33:58;;;;;;;0.30;0.30;;;7.80;99.90;;;;;;4977282;28;20521;-68
2023/11/27 10:36:25;;;;;;;0.40;0.40;;;7.80;99.90;;;;;;4955871;28;20296;-68
2023/11/27 10:39:08;;;;;;;0.40;0.40;;;7.80;99.90;;;;;;4955912;29;20638;-68
2023/11/27 10:41:35;;;;;;;0.30;0.30;;;7.80;99.90;;;;;;4955751;29;20730;-69
2023/11/27 10:44:02;;;;;;;0.40;0.40;;;7.70;99.90;;;;;;4956082;28;20232;-70
2023/11/27 10:46:32;;;;;;;0.30;0.30;;;7.60;99.90;;;;;;4961510;28;20211;-68
2023/11/27 10:49:01;;;;;;;0.32;0.32;;;7.50;99.90;;;;;;4975164;28;20169;-69
2023/11/27 10:51:30;;;;;;;0.30;0.30;;;7.50;99.90;;;;;;4975126;28;20540;-68
2023/11/27 10:53:59;;;;;;;0.30;0.30;;;7.40;99.90;;;;;;4975054;28;20307;-69
2023/11/27 10:56:27;;;;;;;0.30;0.30;;;7.50;99.90;;;;;;4974712;28;20513;-69
2023/11/27 10:58:55;;;;;;;0.30;0.30;;;7.50;99.90;;;;;;4975202;28;20172;-69
2023/11/27 11:01:25;;;;;;;0.40;0.40;;;7.60;99.90;;;;;;4974399;28;20211;-69
2023/11/27 11:03:56;;;;;;;0.30;0.30;;;7.50;99.90;;;;;;4974991;28;20168;-69
2023/11/27 11:06:25;;;;;;;0.30;0.30;;;7.50;99.90;;;;;;4974521;28;20214;-69
2023/11/27 11:08:52;;;;;;;0.30;0.30;;;7.50;99.90;;;;;;4975000;28;20176;-69
2023/11/27 11:11:21;;;;;;;0.35;0.35;;;7.50;99.90;;;;;;4975123;28;20568;-69
2023/11/27 11:13:48;;;;;;;0.30;0.30;;;7.50;99.90;;;;;;4974530;28;20176;-69
2023/11/27 11:16:29;;;;;;;0.30;0.30;;;7.60;99.90;;;;;;4974283;28;20315;-69
2023/11/27 11:19:32;;;;;;;0.40;0.40;;;7.60;99.90;;;;;;4974851;28;20171;-68
2023/11/27 11:22:12;;;;;;;0.40;0.40;;;7.70;99.90;;;;;;4974316;28;20195;-69
2023/11/27 11:25:16;;;;;;;0.40;0.40;;;7.80;99.90;;;;;;4955255;29;20525;-69
2023/11/27 11:27:49;;;;;;;0.35;0.35;;;7.90;99.90;;;;;;4954832;29;20184;-68
2023/11/27 11:30:15;;;;;;;0.40;0.40;;;8.00;99.80;;;;;;4955485;29;20173;-68
2023/11/27 11:32:40;;;;;;;0.40;0.40;;;8.00;99.50;;;;;;4955687;29;20180;-69
2023/11/27 11:35:11;;;;;;;0.30;0.30;;;8.10;99.90;;;;;;4955017;28;20255;-69
2023/11/27 11:37:49;;;;;;;0.30;0.30;;;8.10;99.20;;;;;;4969754;28;20198;-68
2023/11/27 11:40:16;;;;;;;0.30;0.30;;;8.10;98.90;;;;;;4957878;28;20590;-69
2023/11/27 11:42:44;;;;;;;0.30;0.30;;;8.10;98.90;;;;;;4974341;28;20168;-69
2023/11/27 11:45:25;;;;;;;0.30;0.30;;;8.00;99.00;;;;;;4973960;28;20189;-69
2023/11/27 11:47:56;;;;;;;0.30;0.30;;;8.00;98.60;;;;;;4974383;28;20160;-70
2023/11/27 11:50:30;;;;;;;0.40;0.40;;;7.90;98.70;;;;;;4974405;28;20172;-69
2023/11/27 11:52:55;;;;;;;0.30;0.30;;;7.80;99.10;;;;;;4974044;28;20184;-70
2023/11/27 11:55:25;;;;;;;0.30;0.30;;;7.70;98.70;;;;;;4973898;28;20243;-66
2023/11/27 11:57:51;;;;;;;0.30;0.30;;;7.60;99.00;;;;;;4978087;28;20175;-69
2023/11/27 12:00:22;;;;;;;0.30;0.28;;;7.50;99.30;;;;;;4978437;28;20262;-69
2023/11/27 12:02:55;;;;;;;0.40;0.40;;;7.40;99.70;;;;;;4978239;28;20164;-69
2023/11/27 12:05:25;;;;;;;0.30;0.30;;;7.40;99.90;;;;;;4977783;28;20207;-69
2023/11/27 12:07:51;;;;;;;0.35;0.35;;;7.40;99.90;;;;;;4977880;28;20179;-69
2023/11/27 12:10:17;;;;;;;0.30;0.30;;;7.30;99.90;;;;;;4978382;28;20262;-69
2023/11/27 12:12:49;;;;;;;0.30;0.30;;;7.30;99.90;;;;;;4960608;28;20274;-70
2023/11/27 12:15:16;;;;;;;0.30;0.30;;;7.30;99.90;;;;;;4977670;28;20278;-69
2023/11/27 12:17:50;;;;;;;0.40;0.40;;;7.20;99.90;;;;;;4978130;28;20222;-69
2023/11/27 12:20:21;;;;;;;0.30;0.30;;;7.20;99.90;;;;;;4977772;28;20234;-69
2023/11/27 12:22:47;;;;;;;0.35;0.35;;;7.10;99.90;;;;;;4977825;28;20648;-69
2023/11/27 12:25:18;;;;;;;0.30;0.30;;;7.10;99.90;;;;;;4977607;28;20682;-69
2023/11/27 12:27:46;;;;;;;0.30;0.30;;;7.10;99.90;;;;;;4977973;28;20168;-69
2023/11/27 12:30:20;;;;;;;0.30;0.30;;;7.10;99.90;;;;;;4977477;28;20554;-69
2023/11/27 12:32:52;;;;;;;0.40;0.40;;;7.10;99.90;;;;;;4978155;28;20180;-70
2023/11/27 12:35:19;;;;;;;0.40;0.40;;;7.10;99.90;;;;;;4977348;28;20623;-69
2023/11/27 12:37:48;;;;;;;0.50;0.50;;;7.10;99.90;;;;;;4977694;28;20168;-70
2023/11/27 12:40:18;;;;;;;0.30;0.30;;;7.10;99.90;;;;;;4977662;28;20279;-69
2023/11/27 12:42:48;;;;;;;0.30;0.30;;;7.10;99.90;;;;;;4977392;28;20165;-69
2023/11/27 12:45:20;;;;;;;0.30;0.30;;;7.00;99.90;;;;;;4959901;28;20247;-68
2023/11/27 12:47:50;;;;;;;0.30;0.30;;;7.00;99.90;;;;;;4977988;28;20223;-69
2023/11/27 12:50:23;;;;;;;0.30;0.30;;;7.00;99.90;;;;;;4977579;28;20594;-69
2023/11/27 12:53:03;;;;;;;0.30;0.30;;;6.90;99.90;;;;;;4978350;28;20183;-70
2023/11/27 12:55:36;;;;;;;0.40;0.40;;;6.90;99.90;;;;;;4977984;28;20204;-70
2023/11/27 12:58:10;;;;;;;0.30;0.30;;;6.80;99.90;;;;;;4964381;28;20291;-70
2023/11/27 13:00:39;;;;;;;0.30;0.30;;;6.80;99.90;;;;;;4980574;28;20191;-69
2023/11/27 13:03:05;;;;;;;0.40;0.40;;;6.70;99.90;;;;;;4993646;28;20183;-70
2023/11/27 13:05:31;;;;;;;0.32;0.32;;;6.50;99.90;;;;;;4991934;28;20203;-66
2023/11/27 13:07:58;;;;;;;0.30;0.30;;;6.40;99.90;;;;;;4982792;28;20244;-68
2023/11/27 13:10:24;;;;;;;0.30;0.30;;;6.30;99.90;;;;;;4977324;28;20168;-69
2023/11/27 13:12:50;;;;;;;0.40;0.40;;;6.30;99.90;;;;;;4973110;28;20190;-66
2023/11/27 13:15:23;;;;;;;0.35;0.35;;;6.20;99.90;;;;;;4959726;28;20238;-67
2023/11/27 13:17:56;;;;;;;0.40;0.40;;;6.20;99.90;;;;;;4996525;28;20176;-67
2023/11/27 13:20:22;;;;;;;0.30;0.30;;;6.10;99.90;;;;;;4996213;28;20570;-66
2023/11/27 13:22:52;;;;;;;0.40;0.40;;;6.00;99.90;;;;;;4985399;28;20176;-68
2023/11/27 13:25:18;;;;;;;0.40;0.40;;;6.00;99.90;;;;;;4976478;28;20191;-69
2023/11/27 13:27:46;;;;;;;0.30;0.30;;;5.90;99.90;;;;;;4976422;28;20202;-66
2023/11/27 13:30:26;;;;;;;0.30;0.30;;;5.80;99.90;;;;;;4977756;28;20516;-69
2023/11/27 13:32:53;;;;;;;0.50;0.50;;;5.80;99.90;;;;;;4959351;28;20243;-66
2023/11/27 13:35:29;;;;;;;0.30;0.30;;;5.70;99.90;;;;;;4958863;28;20255;-69
2023/11/27 13:37:56;;;;;;;0.30;0.30;;;5.70;99.90;;;;;;4976565;28;20262;-66
2023/11/27 13:40:23;;;;;;;0.35;0.35;;;5.60;99.90;;;;;;4975940;28;20214;-65
2023/11/27 13:42:50;;;;;;;0.40;0.40;;;5.50;99.90;;;;;;4976543;28;20190;-67
2023/11/27 13:45:21;;;;;;;0.30;0.30;;;5.50;99.90;;;;;;4977090;28;20204;-68
2023/11/27 13:47:52;;;;;;;0.30;0.30;;;5.40;99.90;;;;;;4976551;28;20536;-66
2023/11/27 13:50:21;;;;;;;0.30;0.30;;;5.30;99.90;;;;;;4979447;28;20668;-66
2023/11/27 13:52:47;;;;;;;0.40;0.40;;;5.30;99.90;;;;;;4991966;28;20601;-65
2023/11/27 13:55:17;;;;;;;0.30;0.30;;;5.30;99.90;;;;;;4976905;28;20216;-67
2023/11/27 13:57:48;;;;;;;0.47;0.47;;;5.20;99.90;;;;;;4976418;28;20511;-66
2023/11/27 14:00:21;;;;;;;0.52;0.52;;;5.20;99.90;;;;;;4976191;28;20204;-66
2023/11/27 14:02:47;;;;;;;0.30;0.30;;;5.10;99.90;;;;;;4976361;28;20214;-67
2023/11/27 14:05:21;;;;;;;0.30;0.30;;;5.00;99.90;;;;;;4975725;28;20224;-68
2023/11/27 14:07:50;;;;;;;0.40;0.40;;;5.00;99.90;;;;;;4975272;28;20198;-65
2023/11/27 14:10:25;;;;;;;0.30;0.30;;;5.00;99.90;;;;;;4975674;28;20182;-66
2023/11/27 14:13:02;;;;;;;0.40;0.40;;;4.90;99.90;;;;;;4975847;28;20603;-67
2023/11/27 14:15:37;;;;;;;0.30;0.30;;;4.90;99.90;;;;;;4980486;28;20707;-68
2023/11/27 14:23:25;;;;;;;0.40;0.40;;;4.60;99.90;;;;;;4986223;28;20193;-68
2023/11/27 14:31:19;;;;;;;0.40;0.40;;;4.40;99.90;;;;;;4985417;28;20189;-66
2023/11/27 14:33:48;;;;;;;0.40;0.40;;;4.30;99.90;;;;;;4994207;28;20182;-68
2023/11/27 14:36:14;;;;;;;0.40;0.40;;;4.30;99.90;;;;;;4992611;28;20193;-65
2023/11/27 14:38:43;;;;;;;0.40;0.40;;;4.20;99.90;;;;;;4975517;28;20195;-66
2023/11/27 14:41:11;;;;;;;0.30;0.30;;;4.10;99.90;;;;;;4975327;28;20703;-65
2023/11/27 14:43:37;;;;;;;0.40;0.40;;;4.10;99.90;;;;;;4958378;28;20263;-66
2023/11/27 14:46:03;;;;;;;0.37;0.37;;;4.00;99.90;;;;;;4975840;28;20735;-63
2023/11/27 14:48:32;;;;;;;0.38;0.38;;;3.90;99.90;;;;;;4975087;28;20177;-65
2023/11/27 14:51:01;;;;;;;0.40;0.40;;;3.80;99.90;;;;;;4974924;28;20185;-64
2023/11/27 14:53:27;;;;;;;0.30;0.30;;;3.80;99.90;;;;;;4975137;28;20671;-63
2023/11/27 14:55:53;;;;;;;0.40;0.40;;;3.80;99.90;;;;;;4958355;28;20197;-64
2023/11/27 14:58:19;;;;;;;0.43;0.43;;;3.70;99.90;;;;;;4983259;28;20664;-64
2023/11/27 15:00:48;;;;;;;0.30;0.30;;;3.70;99.90;;;;;;4977000;28;20231;-64
2023/11/27 15:03:25;;;;;;;0.82;0.82;;;3.60;99.90;;;;;;4974621;28;20413;-61
2023/11/27 15:05:51;;;;;;;0.40;0.40;;;3.60;99.90;;;;;;4973716;28;20246;-64
2023/11/27 15:08:20;;;;;;;1.02;0.60;;;3.60;99.90;;;;;;4973306;28;20177;-62
2023/11/27 15:10:55;;;;;;;0.43;0.43;;;3.60;99.90;;;;;;4974357;28;20264;-63
2023/11/27 15:13:21;;;;;;;0.45;0.45;;;3.50;99.90;;;;;;4973832;28;20185;-65
2023/11/27 15:15:57;;;;;;;0.30;0.30;;;3.50;99.90;;;;;;4974172;28;20256;-63
2023/11/27 15:18:23;;;;;;;0.30;0.30;;;3.50;99.90;;;;;;4974863;28;20189;-65
2023/11/27 15:20:49;;;;;;;0.40;0.40;;;3.50;99.90;;;;;;4974735;28;20678;-65
2023/11/27 15:23:14;;;;;;;0.93;0.93;;;3.50;99.90;;;;;;4974930;28;20637;-65
2023/11/27 15:25:40;;;;;;;0.30;0.30;;;3.50;99.90;;;;;;4974297;28;20290;-65
2023/11/27 15:28:05;;;;;;;0.50;0.50;;;3.50;99.90;;;;;;4974544;28;20169;-65
2023/11/27 15:30:34;;;;;;;0.40;0.40;;;3.60;99.90;;;;;;4974212;28;20176;-61
2023/11/27 15:33:00;;;;;;;0.30;0.30;;;3.60;99.90;;;;;;4974767;28;20262;-63
2023/11/27 15:35:29;;;;;;;0.30;0.30;;;3.60;99.90;;;;;;4974242;28;20284;-64
2023/11/27 15:37:55;;;;;;;0.40;0.40;;;3.70;99.90;;;;;;4974668;28;20183;-62
2023/11/27 15:40:26;;;;;;;0.30;0.30;;;3.70;99.90;;;;;;4974328;28;20204;-64
2023/11/27 15:42:54;;;;;;;0.30;0.30;;;3.70;99.90;;;;;;4973995;28;20297;-64
2023/11/27 15:45:19;;;;;;;0.30;0.30;;;3.80;99.90;;;;;;4974199;28;20197;-64
2023/11/27 15:47:45;;;;;;;0.40;0.40;;;3.80;99.90;;;;;;4974366;28;20273;-63
2023/11/27 15:50:14;;;;;;;0.40;0.40;;;3.90;99.90;;;;;;4974535;28;20423;-65
2023/11/27 15:52:40;;;;;;;0.30;0.30;;;3.90;99.90;;;;;;4957135;28;20509;-63
2023/11/27 15:55:08;;;;;;;0.40;0.40;;;3.90;99.90;;;;;;4973982;28;20205;-65
2023/11/27 15:57:34;;;;;;;0.40;0.40;;;3.90;99.90;;;;;;4974275;28;20177;-62
2023/11/27 15:59:59;;;;;;;0.30;0.30;;;4.00;99.90;;;;;;4974316;28;20183;-64
2023/11/27 16:02:26;;;;;;;0.30;0.30;;;4.00;99.90;;;;;;4974297;28;20207;-61
2023/11/27 16:04:53;;;;;;;0.30;0.30;;;4.00;99.90;;;;;;4974026;28;20169;-64
2023/11/27 16:07:18;;;;;;;0.30;0.30;;;4.00;99.90;;;;;;4973981;28;20192;-63
2023/11/27 16:09:44;;;;;;;0.30;0.30;;;4.10;99.90;;;;;;4974120;28;20184;-64
2023/11/27 16:12:10;;;;;;;0.30;0.30;;;4.10;99.90;;;;;;4974352;28;20193;-65
2023/11/27 16:14:36;;;;;;;0.30;0.30;;;4.10;99.90;;;;;;4973828;28;20180;-62
2023/11/27 16:17:03;;;;;;;0.40;0.40;;;4.10;99.90;;;;;;4973914;28;20434;-64
2023/11/27 16:19:28;;;;;;;0.38;0.38;;;4.20;99.90;;;;;;4974259;28;20192;-63
2023/11/27 16:21:55;;;;;;;0.40;0.40;;;4.20;99.90;;;;;;4974303;28;20255;-65
2023/11/27 16:24:21;;;;;;;0.40;0.40;;;4.20;99.90;;;;;;4973504;28;20419;-63
2023/11/27 16:26:48;;;;;;;0.40;0.40;;;4.30;99.90;;;;;;4974028;28;20525;-62
2023/11/27 16:29:17;;;;;;;0.30;0.30;;;4.30;99.90;;;;;;4974266;28;20172;-63
2023/11/27 16:31:45;;;;;;;0.30;0.30;;;4.30;99.90;;;;;;4974029;28;20192;-63
2023/11/27 16:34:14;;;;;;;0.30;0.30;;;4.30;99.90;;;;;;4973188;28;20656;-64
2023/11/27 16:36:40;;;;;;;0.40;0.40;;;4.30;99.90;;;;;;4974067;28;20586;-64
2023/11/27 16:39:08;;;;;;;0.30;0.30;;;4.30;99.90;;;;;;4974218;28;20634;-62
2023/11/27 16:41:33;;;;;;;0.40;0.40;;;4.40;99.90;;;;;;4973854;28;20211;-62
2023/11/27 16:43:59;;;;;;;0.33;0.33;;;4.30;99.90;;;;;;4976362;28;20226;-65
2023/11/27 16:46:25;;;;;;;0.30;0.30;;;4.40;99.90;;;;;;4959872;28;20199;-63
2023/11/27 16:48:50;;;;;;;0.30;0.30;;;4.40;99.90;;;;;;4977251;28;20188;-63
2023/11/27 16:51:17;;;;;;;0.30;0.30;;;4.40;99.90;;;;;;4977595;28;20179;-61
2023/11/27 16:53:43;;;;;;;0.30;0.30;;;4.40;99.90;;;;;;4977628;28;20656;-61
2023/11/27 16:56:09;;;;;;;0.40;0.40;;;4.40;99.90;;;;;;4976926;28;20207;-60
2023/11/27 16:58:35;;;;;;;0.30;0.30;;;4.40;99.90;;;;;;4977488;28;20434;-63
2023/11/27 17:01:06;;;;;;;0.32;0.32;;;4.50;99.90;;;;;;4977118;28;20539;-62
2023/11/27 17:03:37;;;;;;;0.30;0.30;;;4.40;99.90;;;;;;4977278;28;20190;-64
2023/11/27 17:06:02;;;;;;;0.35;0.35;;;4.40;99.90;;;;;;4976648;28;20750;-63
2023/11/27 17:08:33;;;;;;;0.30;0.30;;;4.50;99.90;;;;;;4977074;28;20173;-65
2023/11/27 17:10:59;;;;;;;0.35;0.35;;;4.50;99.90;;;;;;4977210;28;20410;-64
2023/11/27 17:13:25;;;;;;;0.30;0.30;;;4.50;99.90;;;;;;4977174;28;20192;-64
2023/11/27 17:15:50;;;;;;;0.40;0.40;;;4.50;99.90;;;;;;4976914;28;20197;-63
2023/11/27 17:18:16;;;;;;;0.30;0.30;;;4.50;99.90;;;;;;4976309;28;20230;-65
2023/11/27 17:20:42;;;;;;;0.30;0.30;;;4.50;99.90;;;;;;4975878;28;20196;-64
2023/11/27 17:23:08;;;;;;;0.30;0.30;;;4.50;99.90;;;;;;4976102;28;20177;-65
2023/11/27 17:25:35;;;;;;;0.37;0.37;;;4.50;99.90;;;;;;4975610;28;20236;-64
2023/11/27 17:28:01;;;;;;;0.30;0.30;;;4.50;99.90;;;;;;4976170;28;20184;-67
2023/11/27 17:30:27;;;;;;;0.30;0.30;;;4.50;99.90;;;;;;4976711;28;20176;-66
2023/11/27 17:32:53;;;;;;;0.33;0.33;;;4.50;99.90;;;;;;4959126;28;20438;-64
2023/11/27 17:35:19;;;;;;;0.30;0.30;;;4.50;99.90;;;;;;4975846;28;20441;-63
2023/11/27 17:37:49;;;;;;;0.40;0.40;;;4.50;99.90;;;;;;4976449;28;20418;-63
2023/11/27 17:40:17;;;;;;;0.30;0.30;;;4.50;99.90;;;;;;4976229;28;20204;-65
2023/11/27 17:42:44;;;;;;;0.30;0.30;;;4.50;99.90;;;;;;4976317;28;20172;-63
2023/11/27 17:45:14;;;;;;;0.30;0.30;;;4.50;99.90;;;;;;4975460;28;20201;-65
2023/11/27 17:47:47;;;;;;;0.30;0.30;;;4.50;99.90;;;;;;4959345;28;20213;-63
2023/11/27 17:50:19;;;;;;;0.30;0.30;;;4.50;99.90;;;;;;4976519;28;20170;-65
2023/11/27 17:52:55;;;;;;;0.30;0.30;;;4.50;99.90;;;;;;4976262;28;20215;-63
2023/11/27 17:55:29;;;;;;;0.30;0.30;;;4.50;99.90;;;;;;4975760;28;20221;-65
2023/11/27 17:57:56;;;;;;;0.40;0.40;;;4.50;99.90;;;;;;4976497;28;20208;-65
2023/11/27 18:00:21;;;;;;;0.30;0.30;;;4.50;99.90;;;;;;4958803;28;20205;-63
2023/11/27 18:02:49;;;;;;;0.30;0.30;;;4.50;99.90;;;;;;4976101;28;20734;-64
2023/11/27 18:05:22;;;;;;;0.40;0.40;;;4.50;99.90;;;;;;4975424;28;20246;-64
2023/11/27 18:07:51;;;;;;;0.45;0.45;;;4.50;99.90;;;;;;4975695;28;20190;-66
2023/11/27 18:10:22;;;;;;;0.30;0.30;;;4.50;99.90;;;;;;4975706;28;20181;-65
2023/11/27 18:12:49;;;;;;;0.30;0.30;;;4.50;99.90;;;;;;4976458;28;20259;-63
2023/11/27 18:15:15;;;;;;;0.30;0.30;;;4.40;99.90;;;;;;4975813;28;20220;-62
2023/11/27 18:17:51;;;;;;;0.30;0.30;;;4.40;99.90;;;;;;4975604;28;20209;-64